sensor_id;sensor_type;location;lat;lon;timestamp;pressure;altitude;pressure_sealevel;temperature;humidity
85545;BME280;75982;52.834;13.846;2024-01-30T00:01:56;102376.94;;;0.49;74.48
85545;BME280;75982;52.834;13.846;2024-01-30T00:04:24;102376.13;;;0.51;74.57
85545;BME280;75982;52.834;13.846;2024-01-30T00:06:51;102376.97;;;0.51;74.20
85545;BME280;75982;52.834;13.846;2024-01-30T00:09:17;102363.97;;;0.37;75.72
85545;BME280;75982;52.834;13.846;2024-01-30T00:11:44;102372.28;;;0.24;75.20
85545;BME280;75982;52.834;13.846;2024-01-30T00:14:11;102372.13;;;0.15;75.06
85545;BME280;75982;52.834;13.846;2024-01-30T00:16:38;102374.59;;;0.09;76.34
85545;BME280;75982;52.834;13.846;2024-01-30T00:19:04;102376.94;;;-0.03;77.13
85545;BME280;75982;52.834;13.846;2024-01-30T00:21:33;102381.19;;;-0.04;77.14
85545;BME280;75982;52.834;13.846;2024-01-30T00:24:00;102374.19;;;-0.14;77.43
85545;BME280;75982;52.834;13.846;2024-01-30T00:26:26;102374.47;;;0.02;76.01
85545;BME280;75982;52.834;13.846;2024-01-30T00:28:53;102379.34;;;-0.12;77.20
85545;BME280;75982;52.834;13.846;2024-01-30T00:31:20;102383.63;;;-0.11;77.12
85545;BME280;75982;52.834;13.846;2024-01-30T00:33:46;102381.59;;;-0.30;77.59
85545;BME280;75982;52.834;13.846;2024-01-30T00:36:13;102381.50;;;-0.35;77.72
85545;BME280;75982;52.834;13.846;2024-01-30T00:38:41;102383.19;;;-0.34;78.15
85545;BME280;75982;52.834;13.846;2024-01-30T00:41:08;102375.31;;;-0.44;78.01
85545;BME280;75982;52.834;13.846;2024-01-30T00:43:35;102374.44;;;-0.45;77.69
85545;BME280;75982;52.834;13.846;2024-01-30T00:46:01;102378.66;;;-0.49;78.03
85545;BME280;75982;52.834;13.846;2024-01-30T00:48:28;102371.81;;;-0.50;78.52
85545;BME280;75982;52.834;13.846;2024-01-30T00:50:55;102374.19;;;-0.59;78.79
85545;BME280;75982;52.834;13.846;2024-01-30T00:53:24;102375.22;;;-0.49;79.00
85545;BME280;75982;52.834;13.846;2024-01-30T00:55:52;102370.13;;;-0.47;79.25
85545;BME280;75982;52.834;13.846;2024-01-30T00:58:19;102371.09;;;-0.41;78.41
85545;BME280;75982;52.834;13.846;2024-01-30T01:00:46;102373.91;;;-0.29;77.99
85545;BME280;75982;52.834;13.846;2024-01-30T01:03:13;102372.06;;;-0.36;78.18
85545;BME280;75982;52.834;13.846;2024-01-30T01:05:40;102371.66;;;-0.11;77.19
85545;BME280;75982;52.834;13.846;2024-01-30T01:08:06;102372.81;;;0.04;76.87
85545;BME280;75982;52.834;13.846;2024-01-30T01:10:33;102380.72;;;-0.29;76.95
85545;BME280;75982;52.834;13.846;2024-01-30T01:13:01;102381.50;;;-0.33;77.92
85545;BME280;75982;52.834;13.846;2024-01-30T01:15:28;102380.44;;;-0.44;78.59
85545;BME280;75982;52.834;13.846;2024-01-30T01:17:56;102376.22;;;-0.41;78.67
85545;BME280;75982;52.834;13.846;2024-01-30T01:20:23;102379.22;;;-0.65;79.24
85545;BME280;75982;52.834;13.846;2024-01-30T01:22:49;102376.66;;;-0.63;79.33
85545;BME280;75982;52.834;13.846;2024-01-30T01:25:16;102374.16;;;-0.60;78.53
85545;BME280;75982;52.834;13.846;2024-01-30T01:27:43;102370.44;;;-0.76;79.54
85545;BME280;75982;52.834;13.846;2024-01-30T01:30:12;102375.47;;;-0.79;79.29
85545;BME280;75982;52.834;13.846;2024-01-30T01:32:38;102369.47;;;-0.81;80.20
85545;BME280;75982;52.834;13.846;2024-01-30T01:35:06;102376.19;;;-0.87;80.37
85545;BME280;75982;52.834;13.846;2024-01-30T01:37:32;102372.84;;;-0.82;80.55
85545;BME280;75982;52.834;13.846;2024-01-30T01:39:59;102378.72;;;-0.87;80.87
85545;BME280;75982;52.834;13.846;2024-01-30T01:42:26;102378.59;;;-0.93;80.26
85545;BME280;75982;52.834;13.846;2024-01-30T01:44:53;102372.75;;;-0.88;80.95
85545;BME280;75982;52.834;13.846;2024-01-30T01:47:21;102370.94;;;-0.92;81.35
85545;BME280;75982;52.834;13.846;2024-01-30T01:49:48;102369.22;;;-0.94;81.71
85545;BME280;75982;52.834;13.846;2024-01-30T01:52:15;102366.66;;;-0.94;81.90
85545;BME280;75982;52.834;13.846;2024-01-30T01:54:42;102372.69;;;-0.91;81.93
85545;BME280;75982;52.834;13.846;2024-01-30T01:57:09;102369.94;;;-1.00;82.02
85545;BME280;75982;52.834;13.846;2024-01-30T01:59:36;102372.44;;;-1.03;81.62
85545;BME280;75982;52.834;13.846;2024-01-30T02:02:03;102377.59;;;-1.00;81.19
85545;BME280;75982;52.834;13.846;2024-01-30T02:04:32;102368.25;;;-0.98;81.15
85545;BME280;75982;52.834;13.846;2024-01-30T02:06:59;102367.41;;;-0.99;81.08
85545;BME280;75982;52.834;13.846;2024-01-30T02:09:26;102357.00;;;-1.06;81.67
85545;BME280;75982;52.834;13.846;2024-01-30T02:11:52;102360.72;;;-0.90;80.67
85545;BME280;75982;52.834;13.846;2024-01-30T02:14:19;102364.16;;;-0.90;80.43
85545;BME280;75982;52.834;13.846;2024-01-30T02:16:46;102362.63;;;-0.83;79.49
85545;BME280;75982;52.834;13.846;2024-01-30T02:19:13;102366.66;;;-0.93;79.28
85545;BME280;75982;52.834;13.846;2024-01-30T02:21:41;102372.38;;;-1.05;79.83
85545;BME280;75982;52.834;13.846;2024-01-30T02:24:08;102365.63;;;-1.01;79.92
85545;BME280;75982;52.834;13.846;2024-01-30T02:26:35;102370.63;;;-1.07;80.24
85545;BME280;75982;52.834;13.846;2024-01-30T02:29:02;102366.47;;;-1.02;79.78
85545;BME280;75982;52.834;13.846;2024-01-30T02:31:28;102359.63;;;-1.03;80.54
85545;BME280;75982;52.834;13.846;2024-01-30T02:33:55;102358.69;;;-1.07;80.48
85545;BME280;75982;52.834;13.846;2024-01-30T02:36:22;102354.50;;;-1.03;80.04
85545;BME280;75982;52.834;13.846;2024-01-30T02:38:50;102359.28;;;-1.18;80.21
85545;BME280;75982;52.834;13.846;2024-01-30T02:41:16;102351.63;;;-1.17;80.79
85545;BME280;75982;52.834;13.846;2024-01-30T02:43:43;102355.97;;;-1.14;80.31
85545;BME280;75982;52.834;13.846;2024-01-30T02:46:10;102349.03;;;-1.20;81.78
85545;BME280;75982;52.834;13.846;2024-01-30T02:48:36;102342.97;;;-1.25;81.98
85545;BME280;75982;52.834;13.846;2024-01-30T02:51:03;102348.78;;;-1.30;82.69
85545;BME280;75982;52.834;13.846;2024-01-30T02:53:30;102351.34;;;-1.30;83.13
85545;BME280;75982;52.834;13.846;2024-01-30T02:55:58;102350.53;;;-1.29;82.98
85545;BME280;75982;52.834;13.846;2024-01-30T02:58:24;102352.16;;;-1.33;83.24
85545;BME280;75982;52.834;13.846;2024-01-30T03:00:51;102352.97;;;-1.34;82.29
85545;BME280;75982;52.834;13.846;2024-01-30T03:03:18;102348.25;;;-1.17;81.80
85545;BME280;75982;52.834;13.846;2024-01-30T03:05:45;102344.81;;;-1.18;81.75
85545;BME280;75982;52.834;13.846;2024-01-30T03:08:11;102351.56;;;-1.20;81.67
85545;BME280;75982;52.834;13.846;2024-01-30T03:10:38;102342.03;;;-1.27;82.45
85545;BME280;75982;52.834;13.846;2024-01-30T03:13:06;102348.72;;;-1.33;82.76
85545;BME280;75982;52.834;13.846;2024-01-30T03:15:33;102339.50;;;-1.27;82.59
85545;BME280;75982;52.834;13.846;2024-01-30T03:17:59;102340.25;;;-1.31;82.95
85545;BME280;75982;52.834;13.846;2024-01-30T03:20:26;102335.84;;;-1.38;83.41
85545;BME280;75982;52.834;13.846;2024-01-30T03:22:55;102345.31;;;-1.34;82.75
85545;BME280;75982;52.834;13.846;2024-01-30T03:25:21;102337.75;;;-1.28;82.48
85545;BME280;75982;52.834;13.846;2024-01-30T03:27:48;102334.44;;;-1.24;82.66
85545;BME280;75982;52.834;13.846;2024-01-30T03:30:16;102333.50;;;-1.27;82.53
85545;BME280;75982;52.834;13.846;2024-01-30T03:32:43;102331.78;;;-1.28;81.96
85545;BME280;75982;52.834;13.846;2024-01-30T03:35:10;102325.28;;;-1.14;81.63
85545;BME280;75982;52.834;13.846;2024-01-30T03:37:37;102334.97;;;-1.00;81.96
85545;BME280;75982;52.834;13.846;2024-01-30T03:40:04;102334.47;;;-0.82;80.98
85545;BME280;75982;52.834;13.846;2024-01-30T03:42:31;102326.78;;;-0.82;81.71
85545;BME280;75982;52.834;13.846;2024-01-30T03:44:58;102337.16;;;-0.76;80.59
85545;BME280;75982;52.834;13.846;2024-01-30T03:47:26;102332.91;;;-0.74;80.96
85545;BME280;75982;52.834;13.846;2024-01-30T03:49:52;102328.00;;;-0.65;79.55
85545;BME280;75982;52.834;13.846;2024-01-30T03:52:19;102332.00;;;-0.77;80.08
85545;BME280;75982;52.834;13.846;2024-01-30T03:54:46;102324.22;;;-0.82;80.37
85545;BME280;75982;52.834;13.846;2024-01-30T03:57:13;102336.97;;;-0.85;80.62
85545;BME280;75982;52.834;13.846;2024-01-30T03:59:41;102332.31;;;-1.04;81.52
85545;BME280;75982;52.834;13.846;2024-01-30T04:02:09;102326.03;;;-1.18;80.68
85545;BME280;75982;52.834;13.846;2024-01-30T04:04:38;102330.41;;;-1.14;81.30
85545;BME280;75982;52.834;13.846;2024-01-30T04:07:05;102331.22;;;-1.15;81.04
85545;BME280;75982;52.834;13.846;2024-01-30T04:09:31;102334.75;;;-1.10;81.47
85545;BME280;75982;52.834;13.846;2024-01-30T04:11:58;102331.50;;;-1.02;80.77
85545;BME280;75982;52.834;13.846;2024-01-30T04:14:24;102331.09;;;-1.21;81.13
85545;BME280;75982;52.834;13.846;2024-01-30T04:16:51;102331.63;;;-0.95;80.50
85545;BME280;75982;52.834;13.846;2024-01-30T04:19:18;102329.69;;;-1.06;80.12
85545;BME280;75982;52.834;13.846;2024-01-30T04:21:46;102327.63;;;-1.23;81.00
85545;BME280;75982;52.834;13.846;2024-01-30T04:24:13;102323.81;;;-1.03;80.33
85545;BME280;75982;52.834;13.846;2024-01-30T04:26:39;102337.31;;;-1.09;81.14
85545;BME280;75982;52.834;13.846;2024-01-30T04:29:06;102339.88;;;-1.09;80.41
85545;BME280;75982;52.834;13.846;2024-01-30T04:31:32;102337.06;;;-1.21;81.64
85545;BME280;75982;52.834;13.846;2024-01-30T04:33:59;102331.94;;;-1.21;82.25
85545;BME280;75982;52.834;13.846;2024-01-30T04:36:26;102339.38;;;-1.31;82.38
85545;BME280;75982;52.834;13.846;2024-01-30T04:38:54;102339.28;;;-1.36;82.54
85545;BME280;75982;52.834;13.846;2024-01-30T04:41:20;102343.63;;;-1.33;82.42
85545;BME280;75982;52.834;13.846;2024-01-30T04:43:47;102347.56;;;-1.46;83.31
85545;BME280;75982;52.834;13.846;2024-01-30T04:46:14;102344.44;;;-1.34;82.37
85545;BME280;75982;52.834;13.846;2024-01-30T04:48:40;102348.50;;;-1.42;82.82
85545;BME280;75982;52.834;13.846;2024-01-30T04:51:07;102347.09;;;-1.30;81.85
85545;BME280;75982;52.834;13.846;2024-01-30T04:53:36;102342.97;;;-1.25;82.16
85545;BME280;75982;52.834;13.846;2024-01-30T04:56:05;102342.84;;;-1.29;83.01
85545;BME280;75982;52.834;13.846;2024-01-30T04:58:31;102336.97;;;-1.25;82.78
85545;BME280;75982;52.834;13.846;2024-01-30T05:00:58;102336.97;;;-1.25;81.75
85545;BME280;75982;52.834;13.846;2024-01-30T05:03:25;102334.31;;;-1.30;81.90
85545;BME280;75982;52.834;13.846;2024-01-30T05:05:52;102329.03;;;-1.36;82.10
85545;BME280;75982;52.834;13.846;2024-01-30T05:08:19;102326.75;;;-1.24;81.72
85545;BME280;75982;52.834;13.846;2024-01-30T05:10:45;102325.13;;;-1.22;81.68
85545;BME280;75982;52.834;13.846;2024-01-30T05:13:14;102324.25;;;-1.21;82.15
85545;BME280;75982;52.834;13.846;2024-01-30T05:15:41;102330.78;;;-1.35;82.14
85545;BME280;75982;52.834;13.846;2024-01-30T05:18:07;102323.09;;;-1.36;82.93
85545;BME280;75982;52.834;13.846;2024-01-30T05:20:36;102323.94;;;-1.36;83.19
85545;BME280;75982;52.834;13.846;2024-01-30T05:23:03;102329.69;;;-1.46;83.68
85545;BME280;75982;52.834;13.846;2024-01-30T05:25:30;102332.19;;;-1.49;84.02
85545;BME280;75982;52.834;13.846;2024-01-30T05:27:57;102328.97;;;-1.39;84.26
85545;BME280;75982;52.834;13.846;2024-01-30T05:30:25;102329.69;;;-1.46;84.04
85545;BME280;75982;52.834;13.846;2024-01-30T05:32:51;102334.09;;;-1.39;84.27
85545;BME280;75982;52.834;13.846;2024-01-30T05:35:18;102335.72;;;-1.44;84.72
85545;BME280;75982;52.834;13.846;2024-01-30T05:37:45;102341.66;;;-1.45;84.53
85545;BME280;75982;52.834;13.846;2024-01-30T05:40:12;102341.66;;;-1.43;84.72
85545;BME280;75982;52.834;13.846;2024-01-30T05:42:39;102339.09;;;-1.43;84.17
85545;BME280;75982;52.834;13.846;2024-01-30T05:45:06;102343.44;;;-1.41;84.18
85545;BME280;75982;52.834;13.846;2024-01-30T05:47:34;102335.72;;;-1.44;84.46
85545;BME280;75982;52.834;13.846;2024-01-30T05:50:01;102333.16;;;-1.42;84.83
85545;BME280;75982;52.834;13.846;2024-01-30T05:52:27;102331.69;;;-1.33;84.83
85545;BME280;75982;52.834;13.846;2024-01-30T05:54:54;102340.41;;;-1.23;83.88
85545;BME280;75982;52.834;13.846;2024-01-30T05:57:21;102335.47;;;-1.16;82.38
85545;BME280;75982;52.834;13.846;2024-01-30T05:59:47;102342.38;;;-1.12;81.85
85545;BME280;75982;52.834;13.846;2024-01-30T06:02:14;102337.19;;;-1.15;82.83
85545;BME280;75982;52.834;13.846;2024-01-30T06:04:42;102338.25;;;-1.05;81.77
85545;BME280;75982;52.834;13.846;2024-01-30T06:07:09;102343.91;;;-1.20;82.04
85545;BME280;75982;52.834;13.846;2024-01-30T06:09:36;102336.88;;;-1.28;82.63
85545;BME280;75982;52.834;13.846;2024-01-30T06:12:05;102338.78;;;-1.21;82.23
85545;BME280;75982;52.834;13.846;2024-01-30T06:14:32;102340.00;;;-1.41;83.39
85545;BME280;75982;52.834;13.846;2024-01-30T06:16:59;102335.66;;;-1.46;83.62
85545;BME280;75982;52.834;13.846;2024-01-30T06:19:25;102333.03;;;-1.49;84.49
85545;BME280;75982;52.834;13.846;2024-01-30T06:21:53;102331.44;;;-1.43;84.76
85545;BME280;75982;52.834;13.846;2024-01-30T06:24:20;102335.56;;;-1.50;85.09
85545;BME280;75982;52.834;13.846;2024-01-30T06:26:47;102339.09;;;-1.45;84.76
85545;BME280;75982;52.834;13.846;2024-01-30T06:29:14;102330.53;;;-1.46;84.86
85545;BME280;75982;52.834;13.846;2024-01-30T06:31:43;102320.38;;;-1.42;84.73
85545;BME280;75982;52.834;13.846;2024-01-30T06:34:10;102331.66;;;-1.34;84.44
85545;BME280;75982;52.834;13.846;2024-01-30T06:36:37;102326.41;;;-1.40;84.87
85545;BME280;75982;52.834;13.846;2024-01-30T06:39:05;102337.41;;;-1.43;84.93
85545;BME280;75982;52.834;13.846;2024-01-30T06:41:32;102329.91;;;-1.35;85.13
85545;BME280;75982;52.834;13.846;2024-01-30T06:43:58;102330.66;;;-1.41;85.04
85545;BME280;75982;52.834;13.846;2024-01-30T06:46:25;102333.22;;;-1.39;84.63
85545;BME280;75982;52.834;13.846;2024-01-30T06:48:52;102338.44;;;-1.36;84.89
85545;BME280;75982;52.834;13.846;2024-01-30T06:51:19;102321.69;;;-1.22;84.37
85545;BME280;75982;52.834;13.846;2024-01-30T06:53:45;102319.13;;;-1.21;84.31
85545;BME280;75982;52.834;13.846;2024-01-30T06:56:13;102319.06;;;-1.25;84.72
85545;BME280;75982;52.834;13.846;2024-01-30T06:58:40;102325.28;;;-1.13;84.34
85545;BME280;75982;52.834;13.846;2024-01-30T07:01:06;102320.28;;;-1.08;83.63
85545;BME280;75982;52.834;13.846;2024-01-30T07:03:33;102322.00;;;-1.07;83.62
85545;BME280;75982;52.834;13.846;2024-01-30T07:06:00;102320.44;;;-1.01;83.17
85545;BME280;75982;52.834;13.846;2024-01-30T07:08:27;102315.34;;;-0.99;83.62
85545;BME280;75982;52.834;13.846;2024-01-30T07:10:53;102321.31;;;-1.00;83.49
85545;BME280;75982;52.834;13.846;2024-01-30T07:13:24;102323.84;;;-1.00;83.36
85545;BME280;75982;52.834;13.846;2024-01-30T07:15:51;102321.31;;;-1.00;84.23
85545;BME280;75982;52.834;13.846;2024-01-30T07:18:18;102321.34;;;-0.99;83.80
85545;BME280;75982;52.834;13.846;2024-01-30T07:20:44;102324.75;;;-0.98;84.19
85545;BME280;75982;52.834;13.846;2024-01-30T07:23:11;102323.97;;;-0.94;83.38
85545;BME280;75982;52.834;13.846;2024-01-30T07:25:40;102317.31;;;-0.86;83.56
85545;BME280;75982;52.834;13.846;2024-01-30T07:28:07;102320.00;;;-0.80;83.55
85545;BME280;75982;52.834;13.846;2024-01-30T07:30:35;102325.88;;;-0.85;83.33
85545;BME280;75982;52.834;13.846;2024-01-30T07:33:02;102317.41;;;-0.81;83.33
85545;BME280;75982;52.834;13.846;2024-01-30T07:35:29;102315.69;;;-0.82;83.04
85545;BME280;75982;52.834;13.846;2024-01-30T07:37:55;102317.66;;;-0.69;83.04
85545;BME280;75982;52.834;13.846;2024-01-30T07:40:22;102322.94;;;-0.60;82.90
85545;BME280;75982;52.834;13.846;2024-01-30T07:42:49;102317.91;;;-0.57;82.87
85545;BME280;75982;52.834;13.846;2024-01-30T07:45:15;102317.81;;;-0.60;82.86
85545;BME280;75982;52.834;13.846;2024-01-30T07:47:43;102314.50;;;-0.55;83.19
85545;BME280;75982;52.834;13.846;2024-01-30T07:50:10;102309.56;;;-0.45;81.86
85545;BME280;75982;52.834;13.846;2024-01-30T07:52:37;102306.16;;;-0.44;82.43
85545;BME280;75982;52.834;13.846;2024-01-30T07:55:04;102307.16;;;-0.38;81.43
85545;BME280;75982;52.834;13.846;2024-01-30T07:57:31;102310.63;;;-0.33;81.53
85545;BME280;75982;52.834;13.846;2024-01-30T07:59:58;102305.50;;;-0.33;81.60
85545;BME280;75982;52.834;13.846;2024-01-30T08:02:24;102303.09;;;-0.25;81.83
85545;BME280;75982;52.834;13.846;2024-01-30T08:04:52;102304.91;;;-0.18;81.61
85545;BME280;75982;52.834;13.846;2024-01-30T08:07:19;102301.56;;;-0.16;82.31
85545;BME280;75982;52.834;13.846;2024-01-30T08:09:46;102305.03;;;-0.11;81.79
85545;BME280;75982;52.834;13.846;2024-01-30T08:12:13;102289.72;;;-0.08;81.73
85545;BME280;75982;52.834;13.846;2024-01-30T08:14:39;102301.78;;;-0.02;82.00
85545;BME280;75982;52.834;13.846;2024-01-30T08:17:06;102293.34;;;0.04;81.53
85545;BME280;75982;52.834;13.846;2024-01-30T08:19:33;102290.16;;;0.20;80.79
85545;BME280;75982;52.834;13.846;2024-01-30T08:22:01;102296.25;;;0.26;80.92
85545;BME280;75982;52.834;13.846;2024-01-30T08:24:28;102289.56;;;0.39;80.43
85545;BME280;75982;52.834;13.846;2024-01-30T08:26:54;102299.38;;;0.66;79.83
85545;BME280;75982;52.834;13.846;2024-01-30T08:29:21;102296.72;;;0.60;79.79
85545;BME280;75982;52.834;13.846;2024-01-30T08:31:48;102293.44;;;0.70;80.24
85545;BME280;75982;52.834;13.846;2024-01-30T08:34:14;102285.03;;;0.81;79.64
85545;BME280;75982;52.834;13.846;2024-01-30T08:36:41;102286.16;;;1.02;79.58
85545;BME280;75982;52.834;13.846;2024-01-30T08:39:09;102292.16;;;1.04;78.82
85545;BME280;75982;52.834;13.846;2024-01-30T08:41:36;102299.00;;;1.05;78.77
85545;BME280;75982;52.834;13.846;2024-01-30T08:44:03;102297.50;;;1.20;77.44
85545;BME280;75982;52.834;13.846;2024-01-30T08:46:29;102286.53;;;1.38;77.97
85545;BME280;75982;52.834;13.846;2024-01-30T08:48:56;102291.72;;;1.42;77.99
85545;BME280;75982;52.834;13.846;2024-01-30T08:51:23;102284.00;;;1.39;78.31
85545;BME280;75982;52.834;13.846;2024-01-30T08:53:50;102284.06;;;1.49;78.52
85545;BME280;75982;52.834;13.846;2024-01-30T08:56:18;102283.22;;;1.51;78.94
85545;BME280;75982;52.834;13.846;2024-01-30T08:58:44;102272.22;;;1.61;77.82
85545;BME280;75982;52.834;13.846;2024-01-30T09:01:11;102277.41;;;1.66;78.35
85545;BME280;75982;52.834;13.846;2024-01-30T09:03:38;102274.03;;;1.73;77.70
85545;BME280;75982;52.834;13.846;2024-01-30T09:06:08;102278.53;;;2.01;76.71
85545;BME280;75982;52.834;13.846;2024-01-30T09:08:34;102278.69;;;2.21;76.87
85545;BME280;75982;52.834;13.846;2024-01-30T09:11:01;102282.06;;;2.12;77.08
85545;BME280;75982;52.834;13.846;2024-01-30T09:13:29;102277.72;;;2.05;76.64
85545;BME280;75982;52.834;13.846;2024-01-30T09:15:56;102284.69;;;2.15;77.18
85545;BME280;75982;52.834;13.846;2024-01-30T09:18:23;102285.75;;;2.49;76.38
85545;BME280;75982;52.834;13.846;2024-01-30T09:20:49;102278.91;;;2.53;76.43
85545;BME280;75982;52.834;13.846;2024-01-30T09:23:16;102279.72;;;2.50;76.75
85545;BME280;75982;52.834;13.846;2024-01-30T09:25:43;102272.09;;;2.67;76.72
85545;BME280;75982;52.834;13.846;2024-01-30T09:28:09;102275.63;;;2.82;75.83
85545;BME280;75982;52.834;13.846;2024-01-30T09:30:37;102278.22;;;2.87;75.28
85545;BME280;75982;52.834;13.846;2024-01-30T09:33:05;102269.66;;;2.92;75.65
85545;BME280;75982;52.834;13.846;2024-01-30T09:35:31;102272.19;;;2.88;76.33
85545;BME280;75982;52.834;13.846;2024-01-30T09:37:58;102273.03;;;2.84;76.18
85545;BME280;75982;52.834;13.846;2024-01-30T09:40:25;102280.75;;;2.75;76.42
85545;BME280;75982;52.834;13.846;2024-01-30T09:42:52;102284.03;;;2.54;77.01
85545;BME280;75982;52.834;13.846;2024-01-30T09:45:19;102278.09;;;2.63;76.87
85545;BME280;75982;52.834;13.846;2024-01-30T09:47:47;102278.03;;;2.52;76.28
85545;BME280;75982;52.834;13.846;2024-01-30T09:50:14;102276.34;;;2.56;76.75
85545;BME280;75982;52.834;13.846;2024-01-30T09:52:42;102273.91;;;2.87;76.82
85545;BME280;75982;52.834;13.846;2024-01-30T09:55:09;102280.81;;;2.93;76.24
85545;BME280;75982;52.834;13.846;2024-01-30T09:57:36;102272.25;;;3.06;76.18
85545;BME280;75982;52.834;13.846;2024-01-30T10:00:03;102267.16;;;3.23;75.66
85545;BME280;75982;52.834;13.846;2024-01-30T10:02:31;102258.63;;;3.44;75.17
85545;BME280;75982;52.834;13.846;2024-01-30T10:05:00;102262.94;;;3.63;74.58
85545;BME280;75982;52.834;13.846;2024-01-30T10:07:27;102262.97;;;3.88;71.71
85545;BME280;75982;52.834;13.846;2024-01-30T10:09:54;102256.06;;;4.07;69.80
85545;BME280;75982;52.834;13.846;2024-01-30T10:12:20;102258.59;;;4.24;69.26
85545;BME280;75982;52.834;13.846;2024-01-30T10:14:47;102250.00;;;4.37;68.49
85545;BME280;75982;52.834;13.846;2024-01-30T10:17:14;102255.97;;;4.47;67.97
85545;BME280;75982;52.834;13.846;2024-01-30T10:19:54;102248.19;;;4.59;67.71
85545;BME280;75982;52.834;13.846;2024-01-30T10:22:22;102247.28;;;4.75;67.62
85545;BME280;75982;52.834;13.846;2024-01-30T10:24:49;102248.06;;;4.88;66.71
85545;BME280;75982;52.834;13.846;2024-01-30T10:27:16;102246.34;;;4.93;66.33
85545;BME280;75982;52.834;13.846;2024-01-30T10:29:42;102242.88;;;5.01;65.36
85545;BME280;75982;52.834;13.846;2024-01-30T10:32:09;102245.38;;;5.10;65.89
85545;BME280;75982;52.834;13.846;2024-01-30T10:34:36;102235.91;;;5.12;65.05
85545;BME280;75982;52.834;13.846;2024-01-30T10:37:07;102245.34;;;5.21;65.22
85545;BME280;75982;52.834;13.846;2024-01-30T10:39:38;102236.66;;;5.31;64.90
85545;BME280;75982;52.834;13.846;2024-01-30T10:42:05;102235.78;;;5.35;64.45
85545;BME280;75982;52.834;13.846;2024-01-30T10:44:36;102237.50;;;5.30;63.65
85545;BME280;75982;52.834;13.846;2024-01-30T10:47:06;102234.00;;;5.40;63.34
85545;BME280;75982;52.834;13.846;2024-01-30T10:49:37;102229.63;;;5.48;62.52
85545;BME280;75982;52.834;13.846;2024-01-30T10:52:05;102238.16;;;5.59;62.94
85545;BME280;75982;52.834;13.846;2024-01-30T10:54:36;102237.25;;;5.69;61.26
85545;BME280;75982;52.834;13.846;2024-01-30T10:57:04;102228.53;;;5.81;62.35
85545;BME280;75982;52.834;13.846;2024-01-30T10:59:32;102218.94;;;5.95;61.32
85545;BME280;75982;52.834;13.846;2024-01-30T11:02:00;102220.66;;;5.96;62.02
85545;BME280;75982;52.834;13.846;2024-01-30T11:04:27;102212.91;;;5.95;60.88
85545;BME280;75982;52.834;13.846;2024-01-30T11:07:01;102213.69;;;6.01;60.96
85545;BME280;75982;52.834;13.846;2024-01-30T11:09:29;102213.69;;;6.01;60.53
85545;BME280;75982;52.834;13.846;2024-01-30T11:11:58;102212.75;;;6.10;59.21
85545;BME280;75982;52.834;13.846;2024-01-30T11:14:25;102209.34;;;6.05;59.63
85545;BME280;75982;52.834;13.846;2024-01-30T11:16:52;102204.94;;;6.14;59.18
85545;BME280;75982;52.834;13.846;2024-01-30T11:19:25;102203.06;;;6.27;59.24
85545;BME280;75982;52.834;13.846;2024-01-30T11:21:52;102198.78;;;6.26;58.62
85545;BME280;75982;52.834;13.846;2024-01-30T11:24:20;102204.69;;;6.36;58.80
85545;BME280;75982;52.834;13.846;2024-01-30T11:26:48;102200.28;;;6.44;59.40
85545;BME280;75982;52.834;13.846;2024-01-30T11:29:16;102194.31;;;6.39;58.39
85545;BME280;75982;52.834;13.846;2024-01-30T11:31:51;102197.63;;;6.50;58.59
85545;BME280;75982;52.834;13.846;2024-01-30T11:34:19;102195.84;;;6.55;57.38
85545;BME280;75982;52.834;13.846;2024-01-30T11:36:51;102194.13;;;6.55;57.18
85545;BME280;75982;52.834;13.846;2024-01-30T11:39:19;102185.44;;;6.59;57.48
85545;BME280;75982;52.834;13.846;2024-01-30T11:41:47;102195.75;;;6.62;57.16
85545;BME280;75982;52.834;13.846;2024-01-30T11:44:18;102197.44;;;6.66;57.50
85545;BME280;75982;52.834;13.846;2024-01-30T11:46:45;102199.78;;;6.86;57.90
85545;BME280;75982;52.834;13.846;2024-01-30T11:49:12;102187.41;;;7.03;57.11
85545;BME280;75982;52.834;13.846;2024-01-30T11:51:38;102196.41;;;7.38;56.93
85545;BME280;75982;52.834;13.846;2024-01-30T11:54:05;102189.38;;;7.46;55.85
85545;BME280;75982;52.834;13.846;2024-01-30T11:56:33;102191.91;;;7.49;55.12
85545;BME280;75982;52.834;13.846;2024-01-30T11:59:01;102181.28;;;7.64;56.41
85545;BME280;75982;52.834;13.846;2024-01-30T12:01:29;102181.41;;;7.56;54.88
85545;BME280;75982;52.834;13.846;2024-01-30T12:03:59;102194.44;;;7.53;55.34
85545;BME280;75982;52.834;13.846;2024-01-30T12:06:26;102185.03;;;7.46;55.17
85545;BME280;75982;52.834;13.846;2024-01-30T12:08:57;102177.00;;;7.61;55.07
85545;BME280;75982;52.834;13.846;2024-01-30T12:11:24;102178.00;;;7.53;55.45
85545;BME280;75982;52.834;13.846;2024-01-30T12:13:51;102168.44;;;7.58;55.10
85545;BME280;75982;52.834;13.846;2024-01-30T12:16:18;102173.63;;;7.58;54.95
85545;BME280;75982;52.834;13.846;2024-01-30T12:18:46;102165.91;;;7.52;55.72
85545;BME280;75982;52.834;13.846;2024-01-30T12:21:16;102164.09;;;7.58;55.42
85545;BME280;75982;52.834;13.846;2024-01-30T12:23:42;102161.50;;;7.58;55.02
85545;BME280;75982;52.834;13.846;2024-01-30T12:26:11;102157.97;;;7.62;55.63
85545;BME280;75982;52.834;13.846;2024-01-30T12:28:47;102158.00;;;7.59;55.91
85545;BME280;75982;52.834;13.846;2024-01-30T12:31:14;102146.78;;;7.59;55.16
85545;BME280;75982;52.834;13.846;2024-01-30T12:33:40;102146.00;;;7.54;54.64
85545;BME280;75982;52.834;13.846;2024-01-30T12:36:09;102145.88;;;7.61;55.92
85545;BME280;75982;52.834;13.846;2024-01-30T12:38:36;102143.22;;;7.64;56.00
85545;BME280;75982;52.834;13.846;2024-01-30T12:41:03;102139.81;;;7.61;55.46
85545;BME280;75982;52.834;13.846;2024-01-30T12:43:29;102134.66;;;7.59;55.09